sensor_id;sensor_type;location;lat;lon;timestamp;pressure;altitude;pressure_sealevel;temperature;humidity
18813;BME280;9534;51.140;6.296;2022-12-16T00:03:01;99948.16;;;-7.32;100.00
18813;BME280;9534;51.140;6.296;2022-12-16T00:07:05;99942.25;;;-7.35;100.00
18813;BME280;9534;51.140;6.296;2022-12-16T00:11:08;99951.59;;;-7.19;100.00
18813;BME280;9534;51.140;6.296;2022-12-16T00:15:12;99951.63;;;-7.08;100.00
18813;BME280;9534;51.140;6.296;2022-12-16T00:19:15;99951.09;;;-7.24;100.00
18813;BME280;9534;51.140;6.296;2022-12-16T00:23:20;99955.34;;;-7.11;100.00
18813;BME280;9534;51.140;6.296;2022-12-16T00:27:23;99960.03;;;-7.25;100.00
18813;BME280;9534;51.140;6.296;2022-12-16T00:31:26;99954.66;;;-7.36;100.00
18813;BME280;9534;51.140;6.296;2022-12-16T00:35:30;99962.69;;;-7.25;100.00
18813;BME280;9534;51.140;6.296;2022-12-16T00:39:34;99971.63;;;-7.26;100.00
18813;BME280;9534;51.140;6.296;2022-12-16T00:43:37;99970.09;;;-7.41;100.00
18813;BME280;9534;51.140;6.296;2022-12-16T00:47:40;99969.78;;;-7.60;100.00
18813;BME280;9534;51.140;6.296;2022-12-16T00:51:44;99967.47;;;-7.64;100.00
18813;BME280;9534;51.140;6.296;2022-12-16T00:55:49;99969.19;;;-7.29;100.00
18813;BME280;9534;51.140;6.296;2022-12-16T00:59:52;99969.09;;;-7.27;100.00
18813;BME280;9534;51.140;6.296;2022-12-16T01:03:56;99957.31;;;-7.36;100.00
18813;BME280;9534;51.140;6.296;2022-12-16T01:07:59;99974.75;;;-7.55;100.00
18813;BME280;9534;51.140;6.296;2022-12-16T01:12:04;99981.53;;;-7.75;100.00
18813;BME280;9534;51.140;6.296;2022-12-16T01:16:07;99987.97;;;-7.90;100.00
18813;BME280;9534;51.140;6.296;2022-12-16T01:20:11;99975.66;;;-7.91;100.00
18813;BME280;9534;51.140;6.296;2022-12-16T01:24:15;99984.63;;;-7.81;100.00
18813;BME280;9534;51.140;6.296;2022-12-16T01:28:19;99993.28;;;-7.90;100.00
18813;BME280;9534;51.140;6.296;2022-12-16T01:32:22;99999.53;;;-7.91;100.00
18813;BME280;9534;51.140;6.296;2022-12-16T01:36:26;99992.84;;;-7.96;100.00
18813;BME280;9534;51.140;6.296;2022-12-16T01:40:32;99992.41;;;-8.14;100.00
18813;BME280;9534;51.140;6.296;2022-12-16T01:44:36;100001.63;;;-8.07;100.00
18813;BME280;9534;51.140;6.296;2022-12-16T01:48:43;100008.50;;;-8.04;100.00
18813;BME280;9534;51.140;6.296;2022-12-16T01:52:50;100008.38;;;-8.03;100.00
18813;BME280;9534;51.140;6.296;2022-12-16T01:56:56;100016.59;;;-7.82;100.00
18813;BME280;9534;51.140;6.296;2022-12-16T02:01:04;100015.16;;;-7.63;100.00
18813;BME280;9534;51.140;6.296;2022-12-16T02:05:07;100015.69;;;-7.58;100.00
18813;BME280;9534;51.140;6.296;2022-12-16T02:09:22;100016.97;;;-7.63;100.00
18813;BME280;9534;51.140;6.296;2022-12-16T02:13:32;100018.59;;;-7.73;100.00
18813;BME280;9534;51.140;6.296;2022-12-16T02:17:47;100018.16;;;-7.67;100.00
18813;BME280;9534;51.140;6.296;2022-12-16T02:22:06;100011.72;;;-7.52;100.00
18813;BME280;9534;51.140;6.296;2022-12-16T02:26:42;100025.28;;;-7.68;100.00
18813;BME280;9534;51.140;6.296;2022-12-16T02:31:08;100022.94;;;-7.49;100.00
18813;BME280;9534;51.140;6.296;2022-12-16T02:35:23;100021.75;;;-7.45;100.00
18813;BME280;9534;51.140;6.296;2022-12-16T02:39:34;100018.03;;;-7.66;100.00
18813;BME280;9534;51.140;6.296;2022-12-16T02:43:49;100010.19;;;-7.67;100.00
18813;BME280;9534;51.140;6.296;2022-12-16T02:47:55;100010.75;;;-7.51;100.00
18813;BME280;9534;51.140;6.296;2022-12-16T02:51:59;100023.59;;;-7.69;100.00
18813;BME280;9534;51.140;6.296;2022-12-16T02:56:06;100021.69;;;-7.79;100.00
18813;BME280;9534;51.140;6.296;2022-12-16T03:00:15;100024.94;;;-7.99;100.00
18813;BME280;9534;51.140;6.296;2022-12-16T03:04:25;100020.47;;;-7.99;100.00
18813;BME280;9534;51.140;6.296;2022-12-16T03:08:31;100032.94;;;-7.76;100.00
18813;BME280;9534;51.140;6.296;2022-12-16T03:12:37;100029.34;;;-7.75;100.00
18813;BME280;9534;51.140;6.296;2022-12-16T03:16:43;100020.88;;;-7.92;100.00
18813;BME280;9534;51.140;6.296;2022-12-16T03:20:53;100024.97;;;-8.12;100.00
18813;BME280;9534;51.140;6.296;2022-12-16T03:24:57;100034.78;;;-8.12;100.00
18813;BME280;9534;51.140;6.296;2022-12-16T03:29:02;100026.16;;;-8.16;100.00
18813;BME280;9534;51.140;6.296;2022-12-16T03:33:10;100040.59;;;-8.20;100.00
18813;BME280;9534;51.140;6.296;2022-12-16T03:37:17;100043.03;;;-8.17;100.00
18813;BME280;9534;51.140;6.296;2022-12-16T03:41:22;100036.03;;;-8.18;100.00
18813;BME280;9534;51.140;6.296;2022-12-16T03:45:28;100038.53;;;-8.04;100.00
18813;BME280;9534;51.140;6.296;2022-12-16T03:49:34;100037.44;;;-7.89;100.00
18813;BME280;9534;51.140;6.296;2022-12-16T03:53:38;100046.00;;;-7.73;100.00
18813;BME280;9534;51.140;6.296;2022-12-16T03:57:41;100042.41;;;-7.48;100.00
18813;BME280;9534;51.140;6.296;2022-12-16T04:01:44;100045.25;;;-7.15;100.00
18813;BME280;9534;51.140;6.296;2022-12-16T04:05:48;100044.94;;;-7.00;100.00
18813;BME280;9534;51.140;6.296;2022-12-16T04:09:53;100044.00;;;-6.88;100.00
18813;BME280;9534;51.140;6.296;2022-12-16T04:13:56;100051.28;;;-6.79;100.00
18813;BME280;9534;51.140;6.296;2022-12-16T04:18:17;100067.16;;;-7.01;100.00
18813;BME280;9534;51.140;6.296;2022-12-16T04:22:41;100067.94;;;-7.12;100.00
18813;BME280;9534;51.140;6.296;2022-12-16T04:27:04;100085.44;;;-7.20;100.00
18813;BME280;9534;51.140;6.296;2022-12-16T04:31:24;100086.75;;;-7.25;100.00
18813;BME280;9534;51.140;6.296;2022-12-16T04:35:28;100081.59;;;-7.16;100.00
18813;BME280;9534;51.140;6.296;2022-12-16T04:39:49;100082.03;;;-7.22;100.00
18813;BME280;9534;51.140;6.296;2022-12-16T04:44:10;100094.00;;;-7.40;100.00
18813;BME280;9534;51.140;6.296;2022-12-16T04:48:31;100083.94;;;-7.24;100.00
18813;BME280;9534;51.140;6.296;2022-12-16T04:53:00;100108.25;;;-7.41;100.00
18813;BME280;9534;51.140;6.296;2022-12-16T04:57:21;100101.06;;;-7.51;100.00
18813;BME280;9534;51.140;6.296;2022-12-16T05:01:42;100108.13;;;-7.63;100.00
18813;BME280;9534;51.140;6.296;2022-12-16T05:06:04;100113.22;;;-7.72;100.00
18813;BME280;9534;51.140;6.296;2022-12-16T05:10:24;100116.81;;;-7.73;100.00
18813;BME280;9534;51.140;6.296;2022-12-16T05:14:45;100105.34;;;-7.61;100.00
18813;BME280;9534;51.140;6.296;2022-12-16T05:19:07;100108.41;;;-7.55;100.00
18813;BME280;9534;51.140;6.296;2022-12-16T05:23:33;100104.28;;;-7.71;100.00
18813;BME280;9534;51.140;6.296;2022-12-16T05:27:54;100116.81;;;-7.61;100.00
18813;BME280;9534;51.140;6.296;2022-12-16T05:32:15;100126.84;;;-7.77;100.00
18813;BME280;9534;51.140;6.296;2022-12-16T05:36:37;100132.88;;;-7.87;100.00
18813;BME280;9534;51.140;6.296;2022-12-16T05:40:58;100140.84;;;-8.00;100.00
18813;BME280;9534;51.140;6.296;2022-12-16T05:45:27;100144.03;;;-7.95;100.00
18813;BME280;9534;51.140;6.296;2022-12-16T05:49:48;100152.94;;;-7.71;100.00
18813;BME280;9534;51.140;6.296;2022-12-16T05:54:09;100160.59;;;-8.04;100.00
18813;BME280;9534;51.140;6.296;2022-12-16T05:58:30;100166.16;;;-8.07;100.00
18813;BME280;9534;51.140;6.296;2022-12-16T06:02:51;100171.13;;;-8.15;100.00
18813;BME280;9534;51.140;6.296;2022-12-16T06:07:11;100180.06;;;-8.16;100.00
18813;BME280;9534;51.140;6.296;2022-12-16T06:11:34;100178.69;;;-8.09;100.00
18813;BME280;9534;51.140;6.296;2022-12-16T06:15:55;100190.56;;;-8.14;100.00
18813;BME280;9534;51.140;6.296;2022-12-16T06:20:15;100195.75;;;-8.25;100.00
18813;BME280;9534;51.140;6.296;2022-12-16T06:24:36;100202.84;;;-8.26;100.00
18813;BME280;9534;51.140;6.296;2022-12-16T06:28:57;100203.06;;;-7.91;100.00
18813;BME280;9534;51.140;6.296;2022-12-16T06:33:18;100203.44;;;-7.35;100.00
18813;BME280;9534;51.140;6.296;2022-12-16T06:37:39;100208.72;;;-7.10;100.00
18813;BME280;9534;51.140;6.296;2022-12-16T06:41:59;100218.16;;;-6.70;100.00
18813;BME280;9534;51.140;6.296;2022-12-16T06:46:22;100217.00;;;-6.55;100.00
18813;BME280;9534;51.140;6.296;2022-12-16T06:50:49;100224.34;;;-6.35;100.00
18813;BME280;9534;51.140;6.296;2022-12-16T06:55:10;100227.84;;;-6.11;100.00
18813;BME280;9534;51.140;6.296;2022-12-16T06:59:30;100230.13;;;-6.07;100.00
18813;BME280;9534;51.140;6.296;2022-12-16T07:03:52;100244.72;;;-5.89;100.00
18813;BME280;9534;51.140;6.296;2022-12-16T07:08:13;100240.03;;;-5.64;100.00
18813;BME280;9534;51.140;6.296;2022-12-16T07:12:33;100252.53;;;-5.53;100.00
18813;BME280;9534;51.140;6.296;2022-12-16T07:16:54;100251.44;;;-5.51;100.00
18813;BME280;9534;51.140;6.296;2022-12-16T07:21:19;100262.84;;;-5.38;100.00
18813;BME280;9534;51.140;6.296;2022-12-16T07:25:40;100273.25;;;-5.35;100.00
18813;BME280;9534;51.140;6.296;2022-12-16T07:30:00;100277.88;;;-5.26;100.00
18813;BME280;9534;51.140;6.296;2022-12-16T07:34:21;100276.91;;;-5.14;100.00
18813;BME280;9534;51.140;6.296;2022-12-16T07:38:49;100294.97;;;-5.06;100.00
18813;BME280;9534;51.140;6.296;2022-12-16T07:43:09;100296.78;;;-4.96;100.00
18813;BME280;9534;51.140;6.296;2022-12-16T07:47:30;100306.97;;;-4.90;100.00
18813;BME280;9534;51.140;6.296;2022-12-16T07:51:51;100309.03;;;-4.82;100.00
18813;BME280;9534;51.140;6.296;2022-12-16T07:56:13;100314.72;;;-4.65;100.00
18813;BME280;9534;51.140;6.296;2022-12-16T08:00:34;100324.44;;;-4.64;100.00
18813;BME280;9534;51.140;6.296;2022-12-16T08:04:56;100323.22;;;-4.49;100.00
18813;BME280;9534;51.140;6.296;2022-12-16T08:09:17;100332.16;;;-4.39;100.00
18813;BME280;9534;51.140;6.296;2022-12-16T08:13:39;100335.06;;;-4.31;100.00
18813;BME280;9534;51.140;6.296;2022-12-16T08:17:59;100337.72;;;-4.20;100.00
18813;BME280;9534;51.140;6.296;2022-12-16T08:22:20;100344.47;;;-4.05;100.00
18813;BME280;9534;51.140;6.296;2022-12-16T08:26:41;100346.59;;;-3.88;100.00
18813;BME280;9534;51.140;6.296;2022-12-16T08:31:11;100341.09;;;-3.76;100.00
18813;BME280;9534;51.140;6.296;2022-12-16T08:35:32;100348.78;;;-3.62;100.00
18813;BME280;9534;51.140;6.296;2022-12-16T08:39:53;100358.59;;;-3.52;100.00
18813;BME280;9534;51.140;6.296;2022-12-16T08:44:34;100366.19;;;-3.36;100.00
18813;BME280;9534;51.140;6.296;2022-12-16T08:48:56;100380.16;;;-3.33;100.00
18813;BME280;9534;51.140;6.296;2022-12-16T08:53:21;100392.22;;;-3.18;100.00
18813;BME280;9534;51.140;6.296;2022-12-16T08:57:42;100393.41;;;-3.11;100.00
18813;BME280;9534;51.140;6.296;2022-12-16T09:02:03;100413.25;;;-2.93;100.00
18813;BME280;9534;51.140;6.296;2022-12-16T09:06:26;100411.28;;;-2.91;100.00
18813;BME280;9534;51.140;6.296;2022-12-16T09:16:55;100431.81;;;-3.12;100.00
18813;BME280;9534;51.140;6.296;2022-12-16T09:21:16;100442.75;;;-3.04;100.00
18813;BME280;9534;51.140;6.296;2022-12-16T09:25:38;100459.56;;;-3.13;100.00
18813;BME280;9534;51.140;6.296;2022-12-16T09:30:11;100449.28;;;-2.97;100.00
18813;BME280;9534;51.140;6.296;2022-12-16T09:34:32;100475.56;;;-3.02;100.00
18813;BME280;9534;51.140;6.296;2022-12-16T09:38:53;100467.94;;;-2.86;100.00
18813;BME280;9534;51.140;6.296;2022-12-16T09:43:32;100487.56;;;-2.65;100.00
18813;BME280;9534;51.140;6.296;2022-12-16T09:48:02;100483.38;;;-2.58;100.00
18813;BME280;9534;51.140;6.296;2022-12-16T09:52:25;100484.66;;;-2.52;100.00
18813;BME280;9534;51.140;6.296;2022-12-16T09:56:46;100485.97;;;-2.47;100.00
18813;BME280;9534;51.140;6.296;2022-12-16T10:01:11;100484.84;;;-2.44;100.00
18813;BME280;9534;51.140;6.296;2022-12-16T10:05:38;100481.22;;;-2.34;100.00
18813;BME280;9534;51.140;6.296;2022-12-16T10:10:16;100478.47;;;-2.23;100.00
18813;BME280;9534;51.140;6.296;2022-12-16T10:14:44;100490.81;;;-2.11;100.00
18813;BME280;9534;51.140;6.296;2022-12-16T10:19:14;100480.78;;;-2.19;100.00
18813;BME280;9534;51.140;6.296;2022-12-16T10:23:41;100492.25;;;-2.07;100.00
18813;BME280;9534;51.140;6.296;2022-12-16T10:28:13;100497.25;;;-1.93;100.00
18813;BME280;9534;51.140;6.296;2022-12-16T10:32:39;100499.75;;;-2.01;100.00
18813;BME280;9534;51.140;6.296;2022-12-16T10:37:03;100502.91;;;-1.87;100.00
18813;BME280;9534;51.140;6.296;2022-12-16T10:41:33;100506.09;;;-1.72;100.00
18813;BME280;9534;51.140;6.296;2022-12-16T10:45:58;100495.94;;;-1.59;100.00
18813;BME280;9534;51.140;6.296;2022-12-16T10:50:19;100505.56;;;-1.47;100.00
18813;BME280;9534;51.140;6.296;2022-12-16T10:54:43;100505.81;;;-1.60;100.00
18813;BME280;9534;51.140;6.296;2022-12-16T10:59:07;100505.75;;;-1.79;100.00
18813;BME280;9534;51.140;6.296;2022-12-16T11:03:32;100515.03;;;-1.53;100.00
18813;BME280;9534;51.140;6.296;2022-12-16T11:07:55;100516.72;;;-1.42;100.00
18813;BME280;9534;51.140;6.296;2022-12-16T11:12:25;100517.78;;;-1.24;100.00
18813;BME280;9534;51.140;6.296;2022-12-16T11:16:46;100521.31;;;-1.24;100.00
18813;BME280;9534;51.140;6.296;2022-12-16T11:21:12;100520.59;;;-1.26;100.00
18813;BME280;9534;51.140;6.296;2022-12-16T11:25:33;100524.00;;;-1.14;100.00
18813;BME280;9534;51.140;6.296;2022-12-16T11:29:56;100535.28;;;-1.20;100.00
18813;BME280;9534;51.140;6.296;2022-12-16T11:34:17;100537.56;;;-1.16;100.00
18813;BME280;9534;51.140;6.296;2022-12-16T11:38:41;100529.59;;;-1.36;100.00
18813;BME280;9534;51.140;6.296;2022-12-16T11:43:04;100528.91;;;-1.38;100.00
18813;BME280;9534;51.140;6.296;2022-12-16T11:47:34;100525.94;;;-1.35;100.00
18813;BME280;9534;51.140;6.296;2022-12-16T11:52:00;100529.66;;;-1.27;100.00
18813;BME280;9534;51.140;6.296;2022-12-16T11:56:41;100536.28;;;-1.31;100.00
18813;BME280;9534;51.140;6.296;2022-12-16T12:01:09;100540.09;;;-1.24;100.00
18813;BME280;9534;51.140;6.296;2022-12-16T12:05:37;100535.56;;;-1.23;100.00
18813;BME280;9534;51.140;6.296;2022-12-16T12:10:07;100540.38;;;-1.17;100.00
18813;BME280;9534;51.140;6.296;2022-12-16T12:14:34;100557.19;;;-1.15;100.00
18813;BME280;9534;51.140;6.296;2022-12-16T12:19:08;100540.66;;;-1.20;100.00
18813;BME280;9534;51.140;6.296;2022-12-16T12:23:39;100544.81;;;-1.46;100.00
18813;BME280;9534;51.140;6.296;2022-12-16T12:28:16;100537.84;;;-1.10;100.00
18813;BME280;9534;51.140;6.296;2022-12-16T12:32:48;100546.66;;;-0.89;100.00
18813;BME280;9534;51.140;6.296;2022-12-16T12:37:17;100552.59;;;-0.76;100.00
18813;BME280;9534;51.140;6.296;2022-12-16T12:41:51;100545.09;;;-0.72;100.00
18813;BME280;9534;51.140;6.296;2022-12-16T12:46:19;100546.09;;;-0.73;100.00
18813;BME280;9534;51.140;6.296;2022-12-16T12:50:51;100550.31;;;-0.71;100.00
18813;BME280;9534;51.140;6.296;2022-12-16T12:55:17;100551.16;;;-0.99;100.00
18813;BME280;9534;51.140;6.296;2022-12-16T12:59:53;100567.00;;;-0.58;100.00
18813;BME280;9534;51.140;6.296;2022-12-16T13:04:17;100564.88;;;-0.45;100.00
18813;BME280;9534;51.140;6.296;2022-12-16T13:08:54;100577.31;;;-0.44;100.00
18813;BME280;9534;51.140;6.296;2022-12-16T13:13:32;100567.00;;;-0.48;100.00
18813;BME280;9534;51.140;6.296;2022-12-16T13:18:29;100564.28;;;-0.29;100.00
18813;BME280;9534;51.140;6.296;2022-12-16T13:22:50;100565.00;;;-0.37;100.00
18813;BME280;9534;51.140;6.296;2022-12-16T13:27:19;100574.38;;;-0.50;100.00
18813;BME280;9534;51.140;6.296;2022-12-16T13:31:59;100579.47;;;-0.66;100.00
18813;BME280;9534;51.140;6.296;2022-12-16T13:36:33;100585.38;;;-0.63;100.00
18813;BME280;9534;51.140;6.296;2022-12-16T13:40:56;100595.03;;;-0.60;100.00
18813;BME280;9534;51.140;6.296;2022-12-16T13:45:30;100592.44;;;-0.62;100.00
18813;BME280;9534;51.140;6.296;2022-12-16T13:49:52;100607.19;;;-0.56;100.00
18813;BME280;9534;51.140;6.296;2022-12-16T13:54:14;100613.38;;;-0.56;100.00
18813;BME280;9534;51.140;6.296;2022-12-16T13:58:37;100616.38;;;-0.49;100.00
18813;BME280;9534;51.140;6.296;2022-12-16T14:03:10;100619.47;;;-0.54;100.00
18813;BME280;9534;51.140;6.296;2022-12-16T14:07:36;100615.78;;;-0.53;100.00
18813;BME280;9534;51.140;6.296;2022-12-16T14:12:02;100619.88;;;-0.68;100.00
18813;BME280;9534;51.140;6.296;2022-12-16T14:16:34;100629.56;;;-1.05;100.00
18813;BME280;9534;51.140;6.296;2022-12-16T14:21:01;100631.38;;;-1.24;100.00
18813;BME280;9534;51.140;6.296;2022-12-16T14:25:23;100646.34;;;-1.21;100.00
18813;BME280;9534;51.140;6.296;2022-12-16T14:29:47;100645.78;;;-1.15;100.00
18813;BME280;9534;51.140;6.296;2022-12-16T14:34:12;100651.44;;;-1.18;100.00
18813;BME280;9534;51.140;6.296;2022-12-16T14:38:34;100662.63;;;-1.13;100.00
18813;BME280;9534;51.140;6.296;2022-12-16T14:42:55;100670.66;;;-1.13;100.00
18813;BME280;9534;51.140;6.296;2022-12-16T14:47:19;100669.41;;;-1.10;100.00
18813;BME280;9534;51.140;6.296;2022-12-16T14:51:45;100676.03;;;-1.13;100.00
18813;BME280;9534;51.140;6.296;2022-12-16T14:56:14;100688.75;;;-1.15;100.00
18813;BME280;9534;51.140;6.296;2022-12-16T15:00:37;100691.53;;;-1.17;100.00
18813;BME280;9534;51.140;6.296;2022-12-16T15:05:01;100713.63;;;-1.13;100.00
18813;BME280;9534;51.140;6.296;2022-12-16T15:09:25;100714.13;;;-1.29;100.00
18813;BME280;9534;51.140;6.296;2022-12-16T15:13:53;100724.84;;;-1.29;100.00
18813;BME280;9534;51.140;6.296;2022-12-16T15:18:18;100726.69;;;-1.29;100.00
18813;BME280;9534;51.140;6.296;2022-12-16T15:22:46;100731.47;;;-1.33;100.00
18813;BME280;9534;51.140;6.296;2022-12-16T15:27:13;100740.88;;;-1.38;100.00
18813;BME280;9534;51.140;6.296;2022-12-16T15:31:35;100749.66;;;-1.36;100.00
18813;BME280;9534;51.140;6.296;2022-12-16T15:36:04;100750.53;;;-1.36;100.00
18813;BME280;9534;51.140;6.296;2022-12-16T15:40:29;100761.38;;;-1.37;100.00
18813;BME280;9534;51.140;6.296;2022-12-16T15:44:50;100768.44;;;-1.36;100.00
18813;BME280;9534;51.140;6.296;2022-12-16T15:49:17;100773.34;;;-1.41;100.00
18813;BME280;9534;51.140;6.296;2022-12-16T15:53:39;100776.22;;;-1.33;100.00
18813;BME280;9534;51.140;6.296;2022-12-16T15:58:18;100788.16;;;-1.26;100.00
18813;BME280;9534;51.140;6.296;2022-12-16T16:02:44;100796.81;;;-1.23;100.00
18813;BME280;9534;51.140;6.296;2022-12-16T16:07:13;100809.34;;;-1.23;100.00
18813;BME280;9534;51.140;6.296;2022-12-16T16:11:49;100809.63;;;-1.26;100.00
18813;BME280;9534;51.140;6.296;2022-12-16T16:16:12;100817.16;;;-1.20;100.00
18813;BME280;9534;51.140;6.296;2022-12-16T16:20:33;100811.00;;;-1.12;100.00
18813;BME280;9534;51.140;6.296;2022-12-16T16:24:54;100817.91;;;-1.09;100.00
18813;BME280;9534;51.140;6.296;2022-12-16T16:29:15;100834.88;;;-1.09;100.00
18813;BME280;9534;51.140;6.296;2022-12-16T16:33:37;100838.66;;;-1.11;100.00
18813;BME280;9534;51.140;6.296;2022-12-16T16:37:57;100835.88;;;-1.10;100.00
18813;BME280;9534;51.140;6.296;2022-12-16T16:42:19;100840.00;;;-1.06;100.00
18813;BME280;9534;51.140;6.296;2022-12-16T16:46:40;100846.47;;;-1.08;100.00
18813;BME280;9534;51.140;6.296;2022-12-16T16:51:03;100864.00;;;-1.04;100.00
18813;BME280;9534;51.140;6.296;2022-12-16T16:55:25;100859.00;;;-0.98;100.00
18813;BME280;9534;51.140;6.296;2022-12-16T16:59:46;100861.94;;;-1.01;100.00
18813;BME280;9534;51.140;6.296;2022-12-16T17:04:07;100870.19;;;-0.93;100.00
18813;BME280;9534;51.140;6.296;2022-12-16T17:08:31;100871.88;;;-0.92;100.00
18813;BME280;9534;51.140;6.296;2022-12-16T17:12:53;100873.13;;;-0.96;100.00
18813;BME280;9534;51.140;6.296;2022-12-16T17:17:14;100873.41;;;-0.99;100.00
18813;BME280;9534;51.140;6.296;2022-12-16T17:21:34;100886.03;;;-0.90;100.00
18813;BME280;9534;51.140;6.296;2022-12-16T17:25:56;100883.53;;;-0.82;100.00
18813;BME280;9534;51.140;6.296;2022-12-16T17:30:20;100882.75;;;-0.93;100.00
18813;BME280;9534;51.140;6.296;2022-12-16T17:34:48;100892.31;;;-1.00;100.00
18813;BME280;9534;51.140;6.296;2022-12-16T17:39:10;100891.47;;;-1.01;100.00
18813;BME280;9534;51.140;6.296;2022-12-16T17:43:33;100903.00;;;-0.89;100.00
18813;BME280;9534;51.140;6.296;2022-12-16T17:47:53;100909.03;;;-0.97;100.00
18813;BME280;9534;51.140;6.296;2022-12-16T17:52:14;100914.13;;;-0.94;100.00
18813;BME280;9534;51.140;6.296;2022-12-16T17:56:35;100910.78;;;-0.86;100.00
18813;BME280;9534;51.140;6.296;2022-12-16T18:01:00;100915.59;;;-0.90;100.00
18813;BME280;9534;51.140;6.296;2022-12-16T18:05:22;100915.63;;;-0.80;100.00
18813;BME280;9534;51.140;6.296;2022-12-16T18:09:45;100923.94;;;-0.83;100.00
18813;BME280;9534;51.140;6.296;2022-12-16T18:14:06;100918.25;;;-0.69;100.00
18813;BME280;9534;51.140;6.296;2022-12-16T18:18:29;100921.25;;;-0.83;100.00
18813;BME280;9534;51.140;6.296;2022-12-16T18:22:51;100923.03;;;-0.73;100.00
18813;BME280;9534;51.140;6.296;2022-12-16T18:27:11;100934.09;;;-0.66;100.00
18813;BME280;9534;51.140;6.296;2022-12-16T18:31:32;100941.09;;;-0.75;100.00
18813;BME280;9534;51.140;6.296;2022-12-16T18:35:54;100940.56;;;-0.69;100.00
18813;BME280;9534;51.140;6.296;2022-12-16T18:40:15;100937.63;;;-0.66;100.00
18813;BME280;9534;51.140;6.296;2022-12-16T18:44:36;100936.06;;;-0.68;100.00
18813;BME280;9534;51.140;6.296;2022-12-16T18:49:02;100946.41;;;-0.64;100.00
18813;BME280;9534;51.140;6.296;2022-12-16T18:53:25;100953.50;;;-0.63;100.00
18813;BME280;9534;51.140;6.296;2022-12-16T18:57:46;100954.22;;;-0.61;100.00
18813;BME280;9534;51.140;6.296;2022-12-16T19:02:27;100961.94;;;-0.47;100.00
18813;BME280;9534;51.140;6.296;2022-12-16T19:06:47;100969.28;;;-0.49;100.00
18813;BME280;9534;51.140;6.296;2022-12-16T19:11:09;100970.41;;;-0.51;100.00
18813;BME280;9534;51.140;6.296;2022-12-16T19:15:30;100979.91;;;-0.68;100.00
18813;BME280;9534;51.140;6.296;2022-12-16T19:19:51;100974.78;;;-0.71;100.00
18813;BME280;9534;51.140;6.296;2022-12-16T19:24:33;100989.47;;;-0.75;100.00
18813;BME280;9534;51.140;6.296;2022-12-16T19:28:58;100995.66;;;-0.84;100.00
18813;BME280;9534;51.140;6.296;2022-12-16T19:33:19;101000.50;;;-0.78;100.00
18813;BME280;9534;51.140;6.296;2022-12-16T19:37:40;101005.97;;;-0.79;100.00
18813;BME280;9534;51.140;6.296;2022-12-16T19:42:01;101011.97;;;-0.76;100.00
18813;BME280;9534;51.140;6.296;2022-12-16T19:46:23;101005.00;;;-0.78;100.00
18813;BME280;9534;51.140;6.296;2022-12-16T19:50:43;101013.13;;;-0.69;100.00
18813;BME280;9534;51.140;6.296;2022-12-16T19:55:05;101023.59;;;-0.66;100.00
18813;BME280;9534;51.140;6.296;2022-12-16T19:59:26;101026.56;;;-0.69;100.00
18813;BME280;9534;51.140;6.296;2022-12-16T20:03:50;101031.41;;;-0.63;100.00
18813;BME280;9534;51.140;6.296;2022-12-16T20:08:11;101026.97;;;-0.73;100.00
18813;BME280;9534;51.140;6.296;2022-12-16T20:12:32;101026.22;;;-0.75;100.00
18813;BME280;9534;51.140;6.296;2022-12-16T20:16:56;101032.19;;;-0.72;100.00
18813;BME280;9534;51.140;6.296;2022-12-16T20:21:21;101032.44;;;-0.75;100.00
18813;BME280;9534;51.140;6.296;2022-12-16T20:25:43;101042.94;;;-0.72;100.00
18813;BME280;9534;51.140;6.296;2022-12-16T20:30:04;101046.59;;;-0.73;100.00
18813;BME280;9534;51.140;6.296;2022-12-16T20:34:25;101059.59;;;-0.78;100.00
18813;BME280;9534;51.140;6.296;2022-12-16T20:38:48;101053.81;;;-0.73;100.00
18813;BME280;9534;51.140;6.296;2022-12-16T20:43:10;101066.38;;;-0.74;100.00
18813;BME280;9534;51.140;6.296;2022-12-16T20:47:31;101063.84;;;-0.75;100.00
18813;BME280;9534;51.140;6.296;2022-12-16T20:52:01;101072.06;;;-0.77;100.00
18813;BME280;9534;51.140;6.296;2022-12-16T20:56:23;101065.97;;;-0.79;100.00
18813;BME280;9534;51.140;6.296;2022-12-16T21:00:44;101078.94;;;-0.63;100.00
18813;BME280;9534;51.140;6.296;2022-12-16T21:05:06;101082.94;;;-0.58;100.00
18813;BME280;9534;51.140;6.296;2022-12-16T21:09:27;101083.44;;;-0.64;100.00
18813;BME280;9534;51.140;6.296;2022-12-16T21:13:49;101086.66;;;-0.70;100.00
18813;BME280;9534;51.140;6.296;2022-12-16T21:18:10;101092.97;;;-0.60;100.00
18813;BME280;9534;51.140;6.296;2022-12-16T21:22:30;101105.09;;;-0.65;100.00
18813;BME280;9534;51.140;6.296;2022-12-16T21:26:53;101110.84;;;-0.70;100.00
18813;BME280;9534;51.140;6.296;2022-12-16T21:31:12;101105.88;;;-0.54;100.00
18813;BME280;9534;51.140;6.296;2022-12-16T21:35:33;101118.59;;;-0.56;100.00
18813;BME280;9534;51.140;6.296;2022-12-16T21:39:50;101128.25;;;-0.53;100.00
18813;BME280;9534;51.140;6.296;2022-12-16T21:44:11;101126.19;;;-0.61;100.00
18813;BME280;9534;51.140;6.296;2022-12-16T21:48:33;101135.22;;;-0.62;100.00
18813;BME280;9534;51.140;6.296;2022-12-16T21:52:56;101139.84;;;-0.53;100.00
18813;BME280;9534;51.140;6.296;2022-12-16T21:57:32;101137.31;;;-0.54;100.00
18813;BME280;9534;51.140;6.296;2022-12-16T22:01:54;101154.00;;;-0.51;100.00
18813;BME280;9534;51.140;6.296;2022-12-16T22:06:16;101154.00;;;-0.51;100.00
18813;BME280;9534;51.140;6.296;2022-12-16T22:10:36;101145.09;;;-0.51;100.00
18813;BME280;9534;51.140;6.296;2022-12-16T22:14:57;101156.84;;;-0.52;100.00
18813;BME280;9534;51.140;6.296;2022-12-16T22:19:18;101152.56;;;-0.55;100.00
18813;BME280;9534;51.140;6.296;2022-12-16T22:23:40;101157.69;;;-0.52;100.00
18813;BME280;9534;51.140;6.296;2022-12-16T22:28:00;101169.28;;;-0.51;100.00
18813;BME280;9534;51.140;6.296;2022-12-16T22:32:21;101172.09;;;-0.53;100.00
18813;BME280;9534;51.140;6.296;2022-12-16T22:36:42;101178.59;;;-0.55;100.00
18813;BME280;9534;51.140;6.296;2022-12-16T22:41:04;101186.50;;;-0.54;100.00
18813;BME280;9534;51.140;6.296;2022-12-16T22:45:25;101190.91;;;-0.53;100.00
18813;BME280;9534;51.140;6.296;2022-12-16T22:49:46;101193.59;;;-0.53;100.00